Breckenridge, CO

8:09 AM MDT on October 23, 2014 (GMT -0600)
Berthoud Pass | Change Station
CLOSE
Current Station
Airport
Location: Berthoud Pass,
Elevation: 12490 ft
Nearby Weather Stations

Elev 12490 ft 39.79 °N, 105.76 °W | Updated 19 minutes ago

Clear
Clear
27 °F
Feels Like 9 °F
N
38
Wind Variable Wind from WNW
Gusts 44 mph

Today
High -- | Low -- °F
--% Chance of Precip.
Yesterday
High -- | Low -- °F
Precip. -- in
7:22 AM 6:13 PM
Waning Crescent, 0% visible
Pressure 30.42 in
Visibility 7.0 miles
Clouds Clear
Windchill 9 °F
Dew Point 23 °F
Humidity 86%
Rainfall 0.00 in
Snow Depth 0 in , 0 in , 1 in
UV 0 out of 12
Pollen 2.50 out of 12
Air Quality Not available.
Flu Activity Sporadic
METAR K0CO 231350Z AUTO 30033G38KT 7SM CLR M03/M05 A3042 RMK AO2

More Conditions Fewer Conditions

Pressure 30.42 in
Visibility 7.0 miles
Clouds Clear
Windchill 9 °F
Dew Point 23 °F
Humidity 86%
Rainfall 0.00 in
Snow Depth 0 in , 0 in , 1 in
UV 0 out of 12
Pollen 2.50 out of 12
Air Quality Not available.
Flu Activity Sporadic
METAR K0CO 231350Z AUTO 30033G38KT 7SM CLR M03/M05 A3042 RMK AO2

More Conditions Fewer Conditions

10-Day Weather Forecast

Almanac

Astronomy

Oct. 23, 2014 Rise Set
Actual Time 7:22 AM MDT 6:13 PM MDT
Civil Twilight 6:55 AM MDT 6:41 PM MDT
Nautical Twilight 6:23 AM MDT 7:12 PM MDT
Astronomical Twilight 5:52 AM MDT 7:43 PM MDT
Moon 7:04 AM MDT 6:17 PM MDT
Length of Visible Light 11h 45m
Length of Day
10h 51m
Tomorrow will be 2m 24s shorter.
Waning Crescent, 0% of the Moon is Illuminated
Today
Waning Crescent
Oct 23
New
Oct 30
First Quarter
Nov 6
Full
Nov 14
Last Quarter

Today's Extremes

State Highs State Lows

Community

WunderPhotos

Upload Photos

1,764,247 photos uploaded!

Nearby

Snow Depth

Station Depth Elevation
Copper Mountain 0 in 10500 ft
Michigan Creek 0 in 10600 ft
Hoosier Pass 1 in 11400 ft
Fremont Pass 178 in 11400 ft
Jackwhacker Gulch 1 in 10960 ft

Earthquake Activity

City Distance Mag. Time & Date
No recent earthquake activity has been reported nearby.
Minimum magnitude displayed is 2.5.

Coastal Water Temperatures

Place Temperature
No Stations Reporting

Nearby Weather Stations